Time;durP1;ratioP1;P1;durP2;ratioP2;P2;SDS_P1;SDS_P2;PMS_P1;PMS_P2;Temp;Humidity;BMP_temperature;BMP_pressure;BME280_temperature;BME280_humidity;BME280_pressure;Samples;Min_cycle;Max_cycle;Signal;HPM_P1;HPM_P2
2022/01/21 00:02:15;;;;;;;18.87;5.80;;;;;0.80;102961.00;;;;9924472;29;20748;-79
2022/01/21 00:07:17;;;;;;;12.00;5.93;;;;;0.80;102960.00;;;;9905466;29;20746;-78
2022/01/21 00:12:19;;;;;;;19.17;5.20;;;;;0.70;102958.00;;;;9908373;29;20207;-78
2022/01/21 00:17:22;;;;;;;22.40;5.17;;;;;0.60;102952.00;;;;9910375;29;20224;-78
2022/01/21 00:33:05;;;;;;;17.93;4.83;;;;;0.50;102948.00;;;;9906198;29;20207;-79
2022/01/21 00:38:07;;;;;;;19.50;4.53;;;;;0.40;102957.00;;;;9890479;29;20211;-78
2022/01/21 00:48:15;;;;;;;16.07;3.63;;;;;0.40;102947.00;;;;9912495;29;20223;-79
2022/01/21 00:53:18;;;;;;;27.43;4.10;;;;;0.30;102963.00;;;;9881884;30;20203;-79
2022/01/21 00:58:20;;;;;;;9.30;3.77;;;;;0.20;102962.00;;;;9881596;30;20665;-79
2022/01/21 01:03:22;;;;;;;10.70;3.80;;;;;0.20;102967.00;;;;9924747;29;20202;-79
2022/01/21 01:08:24;;;;;;;7.43;3.50;;;;;0.10;102968.00;;;;9931405;29;20234;-78
2022/01/21 01:29:12;;;;;;;14.10;4.23;;;;;0.20;102955.00;;;;9903731;29;20612;-79
2022/01/21 01:34:14;;;;;;;20.27;5.17;;;;;0.50;102938.00;;;;9954362;29;20195;-79
2022/01/21 01:39:29;;;;;;;15.57;4.83;;;;;0.50;102941.00;;;;9909706;29;20230;-78
2022/01/21 01:49:51;;;;;;;21.07;5.00;;;;;0.50;102948.00;;;;9913834;29;20583;-79
2022/01/21 01:54:55;;;;;;;21.20;5.10;;;;;0.60;102954.00;;;;9925490;29;20254;-79
2022/01/21 01:59:57;;;;;;;15.67;5.13;;;;;0.80;102937.00;;;;9933496;29;20195;-79
2022/01/21 02:04:59;;;;;;;20.63;4.03;;;;;1.00;102939.00;;;;9917348;29;20206;-78
2022/01/21 02:10:03;;;;;;;17.53;5.47;;;;;1.20;102936.00;;;;9917018;29;20231;-79
2022/01/21 02:15:05;;;;;;;11.43;3.83;;;;;1.30;102926.00;;;;9916524;29;20206;-79
2022/01/21 02:25:29;;;;;;;13.70;3.80;;;;;1.60;102917.00;;;;9895107;30;20660;-79
2022/01/21 02:30:31;;;;;;;9.77;3.63;;;;;1.60;102930.00;;;;9894132;30;20203;-79
2022/01/21 02:35:33;;;;;;;13.13;2.90;;;;;1.60;102929.00;;;;9954607;29;20203;-78
2022/01/21 02:40:35;;;;;;;9.53;3.50;;;;;1.70;102931.00;;;;9913187;29;20269;-78
2022/01/21 02:45:40;;;;;;;7.73;3.30;;;;;1.70;102934.00;;;;9931281;29;20225;-78
2022/01/21 02:50:42;;;;;;;13.27;3.00;;;;;1.80;102938.00;;;;9930117;29;20203;-79
2022/01/21 02:55:44;;;;;;;14.57;2.80;;;;;1.80;102943.00;;;;9938879;29;20210;-79
2022/01/21 03:00:46;;;;;;;12.17;3.03;;;;;1.90;102952.00;;;;9938745;29;20194;-79
2022/01/21 03:05:48;;;;;;;14.30;2.73;;;;;1.90;102948.00;;;;9924684;29;20583;-79
2022/01/21 03:10:50;;;;;;;7.80;2.30;;;;;2.00;102948.00;;;;9939714;29;20233;-78
2022/01/21 03:15:53;;;;;;;15.73;4.73;;;;;2.00;102944.00;;;;9927864;29;20656;-79
2022/01/21 03:20:55;;;;;;;14.63;2.70;;;;;2.00;102951.00;;;;9926575;29;20202;-79
2022/01/21 03:25:57;;;;;;;14.40;2.50;;;;;2.10;102966.00;;;;9934475;29;20222;-79
2022/01/21 03:31:19;;;;;;;11.13;2.90;;;;;2.10;102965.00;;;;9903749;29;20340;-79
2022/01/21 03:36:21;;;;;;;11.40;2.53;;;;;2.10;102967.00;;;;9902436;29;20260;-78
2022/01/21 03:41:23;;;;;;;8.67;2.60;;;;;2.00;102958.00;;;;9887007;29;20219;-78
2022/01/21 03:46:25;;;;;;;15.47;2.57;;;;;2.00;102968.00;;;;9902598;29;20227;-79
2022/01/21 03:51:27;;;;;;;9.50;2.10;;;;;2.00;102966.00;;;;9906260;29;20271;-79
2022/01/21 03:56:30;;;;;;;13.90;2.37;;;;;2.10;102973.00;;;;9907820;29;20606;-79
2022/01/21 04:01:34;;;;;;;14.77;2.27;;;;;2.10;102966.00;;;;9906753;29;20221;-78
2022/01/21 04:06:36;;;;;;;8.00;2.40;;;;;2.10;102974.00;;;;9906873;29;20230;-79
2022/01/21 04:11:39;;;;;;;8.57;2.27;;;;;2.00;102968.00;;;;9873788;30;20219;-78
2022/01/21 04:16:40;;;;;;;11.23;3.17;;;;;1.90;102976.00;;;;9924641;29;20289;-78
2022/01/21 04:21:43;;;;;;;11.90;2.60;;;;;1.70;102971.00;;;;9926037;29;20277;-79
2022/01/21 04:26:49;;;;;;;16.10;2.80;;;;;1.50;102973.00;;;;9921092;29;20225;-79
2022/01/21 04:31:51;;;;;;;11.30;2.87;;;;;1.40;102961.00;;;;9921485;29;20322;-78
2022/01/21 04:36:59;;;;;;;8.87;2.60;;;;;1.30;102968.00;;;;9920725;29;20199;-79
2022/01/21 04:47:22;;;;;;;15.77;3.23;;;;;1.10;102973.00;;;;9892071;29;20698;-79
2022/01/21 04:52:26;;;;;;;12.73;3.77;;;;;1.00;102976.00;;;;9920998;29;20211;-78
2022/01/21 04:57:34;;;;;;;16.43;3.53;;;;;0.90;102970.00;;;;9920694;29;20238;-79
2022/01/21 05:02:37;;;;;;;16.93;4.13;;;;;0.80;102962.00;;;;9920039;29;20203;-79
2022/01/21 05:07:43;;;;;;;15.43;4.47;;;;;0.80;102968.00;;;;9904066;29;20295;-78
2022/01/21 05:12:46;;;;;;;13.20;5.20;;;;;0.80;102971.00;;;;9904931;29;20567;-78
2022/01/21 05:17:49;;;;;;;12.83;4.90;;;;;0.80;102983.00;;;;9922585;29;20194;-78
2022/01/21 05:23:11;;;;;;;11.67;4.90;;;;;0.90;102969.00;;;;9949489;29;20225;-78
2022/01/21 05:28:13;;;;;;;13.83;5.40;;;;;1.00;102976.00;;;;9881501;30;20246;-78
2022/01/21 05:33:35;;;;;;;9.63;5.93;;;;;1.20;102985.00;;;;9896019;30;20216;-78
2022/01/21 05:38:58;;;;;;;12.33;6.40;;;;;1.30;102980.00;;;;9911393;30;20272;-78
2022/01/21 05:49:47;;;;;;;13.77;6.70;;;;;1.70;102971.00;;;;9917888;29;20679;-79
2022/01/21 05:55:21;;;;;;;19.33;8.57;;;;;1.80;102987.00;;;;9921657;29;20203;-80
2022/01/21 06:00:34;;;;;;;18.17;7.07;;;;;1.80;102978.00;;;;9917671;29;20672;-79
2022/01/21 06:05:36;;;;;;;14.80;6.83;;;;;1.70;102977.00;;;;9902553;29;20552;-79
2022/01/21 06:10:38;;;;;;;18.47;7.17;;;;;1.50;102978.00;;;;9912380;29;20771;-79
2022/01/21 06:15:40;;;;;;;19.90;7.77;;;;;1.20;102979.00;;;;9914428;29;20220;-79
2022/01/21 06:20:42;;;;;;;16.90;6.67;;;;;1.00;102976.00;;;;9895696;29;20206;-79
2022/01/21 06:25:44;;;;;;;16.60;7.83;;;;;0.90;102965.00;;;;9917871;29;20229;-79
2022/01/21 06:30:49;;;;;;;13.77;6.27;;;;;0.70;102968.00;;;;9918317;29;20234;-79
2022/01/21 06:35:51;;;;;;;17.33;6.97;;;;;0.60;102970.00;;;;9918958;29;20252;-80
2022/01/21 06:40:54;;;;;;;17.80;6.40;;;;;0.60;102975.00;;;;9882046;30;20268;-80
2022/01/21 06:45:56;;;;;;;12.60;7.33;;;;;0.60;102981.00;;;;9871131;29;21009;-79
2022/01/21 06:50:57;;;;;;;16.83;7.30;;;;;0.60;102981.00;;;;9917862;29;20664;-79
2022/01/21 06:56:01;;;;;;;13.07;8.10;;;;;0.60;102990.00;;;;9949034;29;20259;-79
2022/01/21 07:01:03;;;;;;;16.83;6.87;;;;;0.60;103011.00;;;;9930595;29;20203;-79
2022/01/21 07:06:05;;;;;;;18.90;7.07;;;;;0.50;103018.00;;;;9916836;29;20199;-79
2022/01/21 07:11:06;;;;;;;14.17;7.97;;;;;0.50;103025.00;;;;9894455;30;20246;-79
2022/01/21 07:16:08;;;;;;;18.43;8.80;;;;;0.50;103038.00;;;;9879359;30;20207;-79
2022/01/21 07:21:10;;;;;;;16.33;7.83;;;;;0.50;103033.00;;;;9879722;29;20661;-79
2022/01/21 07:26:14;;;;;;;14.20;7.20;;;;;0.40;103037.00;;;;9899412;29;20207;-79
2022/01/21 07:31:16;;;;;;;16.37;7.60;;;;;0.40;103046.00;;;;9939474;29;20357;-79
2022/01/21 07:36:18;;;;;;;14.53;8.20;;;;;0.50;103036.00;;;;9909390;29;20567;-79
2022/01/21 07:41:20;;;;;;;23.17;8.20;;;;;0.60;103048.00;;;;9909316;29;20203;-79
2022/01/21 07:46:22;;;;;;;15.13;7.80;;;;;0.70;103063.00;;;;9885163;30;20222;-79
2022/01/21 07:51:24;;;;;;;19.13;8.67;;;;;0.70;103068.00;;;;9890275;29;20294;-79
2022/01/21 07:56:26;;;;;;;15.07;7.30;;;;;0.70;103072.00;;;;9908787;29;20199;-79
2022/01/21 08:01:28;;;;;;;14.87;7.43;;;;;0.70;103063.00;;;;9922938;29;20271;-79
2022/01/21 08:06:31;;;;;;;11.03;7.13;;;;;0.70;103053.00;;;;9889595;29;20250;-79
2022/01/21 08:11:33;;;;;;;16.47;8.53;;;;;0.70;103067.00;;;;9906749;29;20211;-79
2022/01/21 08:16:36;;;;;;;18.40;8.37;;;;;0.70;103074.00;;;;9908116;29;20280;-79
2022/01/21 08:21:39;;;;;;;15.23;7.97;;;;;0.80;103075.00;;;;9907978;29;20211;-79
2022/01/21 08:26:41;;;;;;;18.77;8.87;;;;;1.00;103078.00;;;;9884922;29;20224;-80
2022/01/21 08:31:44;;;;;;;21.20;9.10;;;;;1.20;103084.00;;;;9920972;29;20265;-79
2022/01/21 08:36:48;;;;;;;19.10;9.50;;;;;1.40;103088.00;;;;9905214;29;20236;-79
2022/01/21 08:41:50;;;;;;;23.97;10.50;;;;;1.70;103083.00;;;;9920567;29;20199;-80
2022/01/21 08:46:52;;;;;;;30.40;14.80;;;;;1.90;103090.00;;;;9906642;29;20210;-79
2022/01/21 08:52:19;;;;;;;24.93;11.77;;;;;1.90;103071.00;;;;9922017;29;20724;-80
2022/01/21 08:57:21;;;;;;;33.13;11.87;;;;;2.00;103075.00;;;;9891218;29;20191;-79
2022/01/21 09:02:22;;;;;;;26.10;13.07;;;;;2.30;103067.00;;;;9890567;29;20572;-80
2022/01/21 09:07:24;;;;;;;22.93;12.27;;;;;2.80;103066.00;;;;9931560;29;20227;-80
2022/01/21 09:12:26;;;;;;;22.67;11.40;;;;;3.20;103070.00;;;;9925596;29;20206;-79
2022/01/21 09:17:28;;;;;;;24.90;10.77;;;;;3.90;103066.00;;;;9936415;29;20222;-79
2022/01/21 09:22:30;;;;;;;19.50;9.50;;;;;4.40;103076.00;;;;9915003;29;20251;-80
2022/01/21 09:27:32;;;;;;;16.43;7.37;;;;;5.00;103091.00;;;;9937002;29;20217;-80
2022/01/21 09:32:35;;;;;;;7.67;5.03;;;;;5.40;103082.00;;;;9919384;29;20203;-80
2022/01/21 09:37:37;;;;;;;17.03;5.53;;;;;5.70;103093.00;;;;9928587;29;20235;-80
2022/01/21 09:42:40;;;;;;;15.90;5.60;;;;;5.90;103094.00;;;;9906749;29;20256;-81
2022/01/21 09:47:50;;;;;;;18.87;5.37;;;;;6.00;103087.00;;;;9881653;29;20216;-80
2022/01/21 09:52:53;;;;;;;13.97;5.40;;;;;6.20;103096.00;;;;9895568;29;20271;-79
2022/01/21 09:57:57;;;;;;;13.13;5.00;;;;;6.50;103098.00;;;;9880220;29;20222;-80
2022/01/21 10:03:03;;;;;;;13.03;4.53;;;;;6.80;103091.00;;;;9890555;29;20205;-80
2022/01/21 10:08:07;;;;;;;11.07;5.23;;;;;6.90;103095.00;;;;9904651;29;20318;-79
2022/01/21 10:13:10;;;;;;;15.13;5.27;;;;;6.80;103112.00;;;;9903694;29;20211;-80
2022/01/21 10:18:18;;;;;;;15.90;5.73;;;;;7.20;103110.00;;;;9932038;29;20256;-79
2022/01/21 10:23:22;;;;;;;11.53;5.83;;;;;7.70;103103.00;;;;9903566;29;20213;-79
2022/01/21 10:28:24;;;;;;;13.40;4.77;;;;;7.30;103104.00;;;;9919734;29;20215;-80
2022/01/21 10:33:26;;;;;;;15.07;5.07;;;;;7.40;103111.00;;;;9895948;29;20289;-79
2022/01/21 10:38:30;;;;;;;10.90;5.10;;;;;7.30;103121.00;;;;9901427;29;20245;-80
2022/01/21 10:43:33;;;;;;;16.70;4.67;;;;;7.30;103128.00;;;;9878696;29;20219;-80
2022/01/21 10:49:07;;;;;;;12.10;3.47;;;;;7.50;103126.00;;;;9897778;29;20247;-79
2022/01/21 10:54:23;;;;;;;6.53;2.90;;;;;7.50;103137.00;;;;9915903;29;20199;-80
2022/01/21 10:59:54;;;;;;;7.07;3.10;;;;;7.50;103120.00;;;;9921586;29;20193;-80
2022/01/21 11:04:59;;;;;;;16.93;3.87;;;;;7.60;103105.00;;;;9943437;29;20248;-79
2022/01/21 11:10:03;;;;;;;16.13;3.03;;;;;7.50;103104.00;;;;9914816;29;20310;-79
2022/01/21 11:15:05;;;;;;;14.60;3.60;;;;;7.50;103088.00;;;;9924146;29;20218;-80
2022/01/21 11:20:15;;;;;;;8.80;2.70;;;;;7.80;103093.00;;;;9902595;29;20676;-80
2022/01/21 11:25:18;;;;;;;12.93;4.00;;;;;7.30;103085.00;;;;9938641;29;20217;-80
2022/01/21 11:30:20;;;;;;;14.97;3.70;;;;;7.00;103090.00;;;;9930526;29;20215;-80
2022/01/21 11:35:22;;;;;;;15.27;3.50;;;;;6.60;103095.00;;;;9929090;29;20207;-80
2022/01/21 11:40:25;;;;;;;10.30;3.57;;;;;6.30;103086.00;;;;9925163;29;20263;-79
2022/01/21 11:50:31;;;;;;;13.87;4.60;;;;;6.40;103077.00;;;;9916713;29;20934;-80
2022/01/21 11:55:41;;;;;;;19.87;4.47;;;;;6.80;103059.00;;;;9907217;29;20207;-80
2022/01/21 12:00:45;;;;;;;13.80;3.50;;;;;6.70;103055.00;;;;9899755;29;20195;-79
2022/01/21 12:05:48;;;;;;;15.27;4.40;;;;;6.90;103050.00;;;;9901185;29;20199;-80
2022/01/21 12:10:50;;;;;;;16.27;3.77;;;;;7.10;103035.00;;;;9900579;29;20226;-79
2022/01/21 12:44:30;;;;;;;19.87;5.13;;;;;7.60;102985.00;;;;10488005;27;20580;-79
2022/01/21 12:49:40;;;;;;;10.50;3.97;;;;;7.70;102992.00;;;;10487990;28;20212;-80
2022/01/21 13:00:44;;;;;;;16.43;4.47;;;;;7.20;103003.00;;;;10396380;28;20298;-80
2022/01/21 13:06:27;;;;;;;17.67;4.93;;;;;6.90;102996.00;;;;10445232;28;20205;-79
2022/01/21 13:11:30;;;;;;;12.80;3.87;;;;;7.30;102985.00;;;;10464654;28;20206;-77
2022/01/21 13:16:32;;;;;;;11.03;4.40;;;;;7.40;102993.00;;;;10430917;28;20277;-78
2022/01/21 13:21:35;;;;;;;11.03;4.77;;;;;7.30;103006.00;;;;10417249;28;20581;-80
2022/01/21 13:26:39;;;;;;;12.80;5.47;;;;;7.20;102996.00;;;;10412978;28;20213;-78
2022/01/21 13:31:47;;;;;;;10.93;5.97;;;;;6.90;102982.00;;;;10434034;28;20183;-78
2022/01/21 13:36:52;;;;;;;12.50;5.23;;;;;6.70;102992.00;;;;10418077;28;20208;-79
2022/01/21 13:42:06;;;;;;;6.70;4.03;;;;;6.60;102996.00;;;;10386865;28;20316;-78
2022/01/21 13:47:27;;;;;;;11.57;4.80;;;;;6.40;102988.00;;;;10384954;28;20299;-78
2022/01/21 13:53:00;;;;;;;12.67;6.03;;;;;6.40;102988.00;;;;10418217;28;20209;-78
2022/01/21 13:58:06;;;;;;;16.97;6.40;;;;;6.50;102976.00;;;;10388391;28;20209;-80
2022/01/21 14:03:17;;;;;;;11.60;6.57;;;;;6.50;102977.00;;;;10370791;28;20207;-78
2022/01/21 14:08:25;;;;;;;10.17;5.70;;;;;6.30;102981.00;;;;10411477;28;20218;-79
2022/01/21 14:13:30;;;;;;;11.80;6.33;;;;;6.00;102979.00;;;;10423285;28;20191;-78
2022/01/21 14:18:34;;;;;;;16.20;5.27;;;;;5.90;102987.00;;;;10400433;28;20226;-78
2022/01/21 14:23:39;;;;;;;14.23;6.50;;;;;5.90;102984.00;;;;10387588;28;20198;-79
2022/01/21 14:28:46;;;;;;;15.17;6.73;;;;;5.80;102978.00;;;;10364221;28;20192;-79
2022/01/21 14:33:48;;;;;;;15.37;6.83;;;;;5.90;102971.00;;;;10357620;28;20282;-81
2022/01/21 14:38:53;;;;;;;12.37;6.67;;;;;6.20;102966.00;;;;10371235;28;20194;-79
2022/01/21 14:43:56;;;;;;;16.90;7.13;;;;;6.20;102973.00;;;;10386830;28;20218;-78
2022/01/21 14:49:01;;;;;;;13.80;7.17;;;;;6.10;102973.00;;;;10400932;28;20222;-80
2022/01/21 14:54:19;;;;;;;13.67;6.83;;;;;6.00;102968.00;;;;10374552;28;20847;-79
2022/01/21 14:59:21;;;;;;;19.63;5.83;;;;;5.90;102977.00;;;;10357466;28;20199;-79
2022/01/21 15:04:24;;;;;;;17.80;7.13;;;;;5.70;102980.00;;;;10368617;28;20230;-79
2022/01/21 15:09:30;;;;;;;15.57;8.13;;;;;5.70;102979.00;;;;10380806;28;20222;-79
2022/01/21 15:14:43;;;;;;;20.10;7.40;;;;;5.80;102981.00;;;;10404159;28;20198;-79
2022/01/21 15:19:49;;;;;;;20.07;5.80;;;;;5.80;102975.00;;;;10443585;28;20194;-79
2022/01/21 15:24:55;;;;;;;16.50;5.50;;;;;5.80;102974.00;;;;10426967;28;20309;-79
2022/01/21 15:29:57;;;;;;;12.80;4.60;;;;;5.90;102981.00;;;;10442423;28;20261;-78
2022/01/21 15:34:59;;;;;;;16.80;3.90;;;;;5.80;102974.00;;;;10412172;28;20618;-79
2022/01/21 15:40:04;;;;;;;9.50;4.03;;;;;5.70;102977.00;;;;10426227;28;20297;-78
2022/01/21 15:45:06;;;;;;;13.57;4.43;;;;;5.60;102983.00;;;;10369001;28;20199;-79
2022/01/21 15:50:11;;;;;;;10.00;3.17;;;;;5.50;102976.00;;;;10367895;28;20187;-78
2022/01/21 15:55:14;;;;;;;16.43;4.23;;;;;5.50;102978.00;;;;10372546;28;20232;-79
2022/01/21 16:00:16;;;;;;;9.43;3.27;;;;;5.50;102976.00;;;;10371775;28;20578;-79
2022/01/21 16:05:20;;;;;;;11.17;3.50;;;;;5.40;102975.00;;;;10367965;28;20195;-79
2022/01/21 16:10:22;;;;;;;16.07;3.07;;;;;5.40;102973.00;;;;10425811;28;20296;-78
2022/01/21 16:15:49;;;;;;;18.43;4.27;;;;;5.40;102977.00;;;;10467942;28;20186;-79
2022/01/21 16:20:53;;;;;;;11.07;4.33;;;;;5.30;102965.00;;;;10464021;28;20209;-79
2022/01/21 16:25:55;;;;;;;15.00;4.20;;;;;5.20;102969.00;;;;10482134;28;20204;-79
2022/01/21 16:30:57;;;;;;;16.90;3.73;;;;;5.10;102962.00;;;;10465455;28;20182;-78
2022/01/21 16:36:03;;;;;;;10.13;3.20;;;;;5.10;102963.00;;;;10464357;28;20728;-78
2022/01/21 16:41:05;;;;;;;12.60;3.53;;;;;5.00;102960.00;;;;10495454;28;20224;-79
2022/01/21 16:46:08;;;;;;;17.77;3.33;;;;;4.80;102952.00;;;;10479009;28;20193;-78
2022/01/21 16:51:12;;;;;;;11.60;3.03;;;;;4.70;102965.00;;;;10468037;28;20190;-79
2022/01/21 16:56:14;;;;;;;10.67;3.27;;;;;4.50;102965.00;;;;10447692;28;20190;-78
2022/01/21 17:01:16;;;;;;;7.13;2.90;;;;;4.40;102971.00;;;;10466056;28;20209;-78
2022/01/21 17:06:19;;;;;;;16.13;4.73;;;;;4.30;102970.00;;;;10464602;28;20228;-78
2022/01/21 17:11:21;;;;;;;15.53;3.93;;;;;4.10;102965.00;;;;10456472;28;20194;-79
2022/01/21 17:16:23;;;;;;;17.07;5.93;;;;;4.10;102968.00;;;;10479351;28;20198;-78
2022/01/21 17:21:26;;;;;;;22.00;5.63;;;;;4.20;102972.00;;;;10471952;28;20266;-78
2022/01/21 17:26:28;;;;;;;17.23;5.70;;;;;4.30;102965.00;;;;10482903;28;20229;-78
2022/01/21 17:31:29;;;;;;;10.50;4.43;;;;;4.30;102972.00;;;;10446855;28;20193;-78
2022/01/21 17:36:32;;;;;;;15.93;5.10;;;;;4.30;102988.00;;;;10503304;28;20193;-78
2022/01/21 17:41:35;;;;;;;18.90;4.07;;;;;4.10;102978.00;;;;10493096;28;20205;-78
2022/01/21 17:46:37;;;;;;;6.03;3.67;;;;;4.00;102978.00;;;;10446676;28;20252;-78
2022/01/21 17:51:41;;;;;;;11.23;3.27;;;;;3.80;102964.00;;;;10429381;28;20199;-78
2022/01/21 17:56:45;;;;;;;12.17;3.93;;;;;3.70;102957.00;;;;10450310;28;20224;-78
2022/01/21 18:01:47;;;;;;;12.10;4.40;;;;;3.60;102973.00;;;;10487566;28;20213;-78
2022/01/21 18:06:49;;;;;;;10.47;4.53;;;;;3.40;102962.00;;;;10487351;28;20214;-78
2022/01/21 18:11:51;;;;;;;16.93;3.97;;;;;3.30;102971.00;;;;10466315;28;20676;-79
2022/01/21 18:16:53;;;;;;;8.73;3.20;;;;;3.20;102972.00;;;;10453309;28;20247;-78
2022/01/21 18:21:59;;;;;;;9.17;3.73;;;;;3.10;102982.00;;;;10487857;28;20196;-79
2022/01/21 18:27:02;;;;;;;13.07;3.70;;;;;3.00;102972.00;;;;10484671;28;20198;-79
2022/01/21 18:32:07;;;;;;;12.97;3.47;;;;;3.00;102981.00;;;;10480451;28;20738;-79
2022/01/21 18:37:09;;;;;;;10.90;3.23;;;;;3.00;102988.00;;;;10455358;28;20669;-79
2022/01/21 18:42:15;;;;;;;5.93;3.43;;;;;2.90;102980.00;;;;10477548;28;20522;-79
2022/01/21 18:47:26;;;;;;;11.90;4.50;;;;;2.90;102992.00;;;;10459403;28;20190;-79
2022/01/21 18:52:33;;;;;;;8.87;4.00;;;;;2.80;102984.00;;;;10465396;28;20273;-79
2022/01/21 18:57:39;;;;;;;11.13;4.67;;;;;2.80;102984.00;;;;10481311;28;20186;-79
2022/01/21 19:02:42;;;;;;;15.47;5.37;;;;;2.80;102970.00;;;;10475126;28;20213;-79
2022/01/21 19:07:46;;;;;;;13.90;4.77;;;;;2.70;102974.00;;;;10435544;28;20324;-79
2022/01/21 19:12:53;;;;;;;14.70;4.70;;;;;2.70;102973.00;;;;10478857;28;20724;-79
2022/01/21 19:17:56;;;;;;;15.47;5.03;;;;;2.70;102973.00;;;;10465789;28;20200;-79
2022/01/21 19:23:03;;;;;;;14.17;5.60;;;;;2.70;102969.00;;;;10446394;28;20610;-79
2022/01/21 19:28:09;;;;;;;18.23;5.07;;;;;2.80;102970.00;;;;10455405;28;20294;-79
2022/01/21 19:33:13;;;;;;;13.93;6.30;;;;;3.00;102965.00;;;;10443418;28;20221;-79
2022/01/21 19:38:15;;;;;;;13.17;5.63;;;;;3.20;102941.00;;;;10449618;28;20288;-79
2022/01/21 19:43:18;;;;;;;12.00;5.63;;;;;3.30;102952.00;;;;10465332;28;20207;-79
2022/01/21 19:48:23;;;;;;;9.80;4.70;;;;;3.40;102944.00;;;;10482259;28;20211;-78
2022/01/21 19:53:25;;;;;;;12.03;5.50;;;;;3.40;102947.00;;;;10424063;28;20240;-79
2022/01/21 19:58:36;;;;;;;16.83;5.83;;;;;3.50;102955.00;;;;10430382;28;20284;-79
2022/01/21 20:09:06;;;;;;;16.57;5.90;;;;;3.60;102962.00;;;;10523354;28;20231;-79
2022/01/21 20:19:24;;;;;;;14.37;7.33;;;;;3.70;102983.00;;;;10506554;28;20200;-79
2022/01/21 20:24:28;;;;;;;15.77;6.37;;;;;3.70;102978.00;;;;10439336;28;20197;-79
2022/01/21 20:29:30;;;;;;;9.40;5.57;;;;;3.70;102987.00;;;;10423745;28;20684;-79
2022/01/21 20:34:31;;;;;;;12.13;5.63;;;;;3.70;102983.00;;;;10440133;28;20510;-79
2022/01/21 20:40:14;;;;;;;17.77;6.50;;;;;3.80;102977.00;;;;10437180;28;20565;-78
2022/01/21 20:45:17;;;;;;;14.57;5.90;;;;;3.80;102975.00;;;;10407062;28;20213;-79
2022/01/21 20:50:21;;;;;;;23.47;6.70;;;;;3.90;102970.00;;;;10439613;28;20202;-79
2022/01/21 20:55:23;;;;;;;16.87;6.73;;;;;3.90;102972.00;;;;10439384;28;20210;-79
2022/01/21 21:00:29;;;;;;;15.67;7.27;;;;;4.00;102974.00;;;;10464382;28;20208;-79
2022/01/21 21:05:31;;;;;;;16.40;6.73;;;;;4.00;102970.00;;;;10487735;28;20193;-78
2022/01/21 21:10:36;;;;;;;20.93;7.17;;;;;4.10;102962.00;;;;10456372;28;20223;-79
2022/01/21 21:15:38;;;;;;;13.27;6.17;;;;;4.10;102956.00;;;;10483448;28;20596;-79
2022/01/21 21:31:47;;;;;;;11.77;6.77;;;;;4.10;102977.00;;;;10468892;28;20201;-79
2022/01/21 23:01:23;;;;;;;14.43;7.80;;;;;4.30;102966.00;;;;10455821;28;20189;-79
2022/01/21 23:06:27;;;;;;;17.80;7.00;;;;;4.30;102970.00;;;;10456637;28;20196;-79
2022/01/21 23:11:29;;;;;;;14.37;8.70;;;;;4.30;102976.00;;;;10439295;28;20221;-79
2022/01/21 23:16:35;;;;;;;22.90;8.67;;;;;4.30;102981.00;;;;10424826;28;20293;-79
2022/01/21 23:21:37;;;;;;;16.13;8.63;;;;;4.30;102970.00;;;;10460771;28;20280;-79
2022/01/21 23:26:41;;;;;;;13.20;8.40;;;;;4.30;102979.00;;;;10423238;28;20208;-79
2022/01/21 23:31:48;;;;;;;15.73;8.83;;;;;4.30;102983.00;;;;10437520;28;20225;-79
2022/01/21 23:36:58;;;;;;;16.33;8.33;;;;;4.30;102984.00;;;;10423621;28;20195;-79
2022/01/21 23:42:03;;;;;;;17.30;7.47;;;;;4.30;102977.00;;;;10449300;28;20209;-79
2022/01/21 23:47:08;;;;;;;20.17;8.70;;;;;4.30;102976.00;;;;10467113;28;20192;-79
2022/01/21 23:52:12;;;;;;;12.93;8.57;;;;;4.30;102989.00;;;;10464542;28;20205;-79
2022/01/21 23:57:15;;;;;;;17.10;8.47;;;;;4.30;102980.00;;;;10480568;28;20217;-79
